sensor_id;sensor_type;location;lat;lon;timestamp;temperature;humidity
42755;DHT22;28407;51.830;5.684;2024-02-21T00:01:55;10.40;87.70
42755;DHT22;28407;51.830;5.684;2024-02-21T00:03:56;10.40;87.70
42755;DHT22;28407;51.830;5.684;2024-02-21T00:05:57;10.40;87.70
42755;DHT22;28407;51.830;5.684;2024-02-21T00:07:59;10.40;87.70
42755;DHT22;28407;51.830;5.684;2024-02-21T00:10:00;10.40;87.70
42755;DHT22;28407;51.830;5.684;2024-02-21T00:12:01;10.40;87.70
42755;DHT22;28407;51.830;5.684;2024-02-21T00:14:02;10.40;87.70
42755;DHT22;28407;51.830;5.684;2024-02-21T00:16:02;10.40;87.70
42755;DHT22;28407;51.830;5.684;2024-02-21T00:18:03;10.40;87.70
42755;DHT22;28407;51.830;5.684;2024-02-21T00:20:04;10.40;87.70
42755;DHT22;28407;51.830;5.684;2024-02-21T00:22:05;10.40;87.70
42755;DHT22;28407;51.830;5.684;2024-02-21T00:24:06;10.40;87.80
42755;DHT22;28407;51.830;5.684;2024-02-21T00:26:07;10.40;87.70
42755;DHT22;28407;51.830;5.684;2024-02-21T00:28:08;10.40;87.70
42755;DHT22;28407;51.830;5.684;2024-02-21T00:30:09;10.40;87.80
42755;DHT22;28407;51.830;5.684;2024-02-21T00:32:10;10.40;87.80
42755;DHT22;28407;51.830;5.684;2024-02-21T00:34:11;10.40;87.80
42755;DHT22;28407;51.830;5.684;2024-02-21T00:36:13;10.40;87.80
42755;DHT22;28407;51.830;5.684;2024-02-21T00:38:13;10.40;87.90
42755;DHT22;28407;51.830;5.684;2024-02-21T00:40:14;10.40;87.90
42755;DHT22;28407;51.830;5.684;2024-02-21T00:42:20;10.40;87.90
42755;DHT22;28407;51.830;5.684;2024-02-21T00:44:21;10.40;87.90
42755;DHT22;28407;51.830;5.684;2024-02-21T00:46:22;10.40;87.90
42755;DHT22;28407;51.830;5.684;2024-02-21T00:48:23;10.40;88.60
42755;DHT22;28407;51.830;5.684;2024-02-21T00:50:23;10.30;87.80
42755;DHT22;28407;51.830;5.684;2024-02-21T00:52:24;10.30;87.90
42755;DHT22;28407;51.830;5.684;2024-02-21T00:54:25;10.30;87.90
42755;DHT22;28407;51.830;5.684;2024-02-21T00:56:25;10.30;87.90
42755;DHT22;28407;51.830;5.684;2024-02-21T00:58:26;10.40;88.00
42755;DHT22;28407;51.830;5.684;2024-02-21T01:00:27;10.30;88.00
42755;DHT22;28407;51.830;5.684;2024-02-21T01:02:27;10.30;88.00
42755;DHT22;28407;51.830;5.684;2024-02-21T01:04:28;10.30;88.00
42755;DHT22;28407;51.830;5.684;2024-02-21T01:06:29;10.30;88.00
42755;DHT22;28407;51.830;5.684;2024-02-21T01:08:29;10.30;88.00
42755;DHT22;28407;51.830;5.684;2024-02-21T01:10:30;10.30;88.00
42755;DHT22;28407;51.830;5.684;2024-02-21T01:12:31;10.30;88.10
42755;DHT22;28407;51.830;5.684;2024-02-21T01:14:31;10.30;88.70
42755;DHT22;28407;51.830;5.684;2024-02-21T01:16:32;10.30;88.10
42755;DHT22;28407;51.830;5.684;2024-02-21T01:18:34;10.30;88.10
42755;DHT22;28407;51.830;5.684;2024-02-21T01:20:34;10.30;88.10
42755;DHT22;28407;51.830;5.684;2024-02-21T01:22:35;10.30;88.10
42755;DHT22;28407;51.830;5.684;2024-02-21T01:24:36;10.30;88.10
42755;DHT22;28407;51.830;5.684;2024-02-21T01:26:36;10.30;88.20
42755;DHT22;28407;51.830;5.684;2024-02-21T01:28:37;10.30;88.10
42755;DHT22;28407;51.830;5.684;2024-02-21T01:30:37;10.30;88.20
42755;DHT22;28407;51.830;5.684;2024-02-21T01:32:38;10.30;88.10
42755;DHT22;28407;51.830;5.684;2024-02-21T01:34:39;10.30;88.10
42755;DHT22;28407;51.830;5.684;2024-02-21T01:36:39;10.30;88.10
42755;DHT22;28407;51.830;5.684;2024-02-21T01:38:41;10.30;88.20
42755;DHT22;28407;51.830;5.684;2024-02-21T01:40:42;10.30;88.20
42755;DHT22;28407;51.830;5.684;2024-02-21T01:42:43;10.30;88.20
42755;DHT22;28407;51.830;5.684;2024-02-21T01:44:43;10.30;88.20
42755;DHT22;28407;51.830;5.684;2024-02-21T01:46:44;10.20;88.70
42755;DHT22;28407;51.830;5.684;2024-02-21T01:48:45;10.20;88.10
42755;DHT22;28407;51.830;5.684;2024-02-21T01:50:47;10.30;88.20
42755;DHT22;28407;51.830;5.684;2024-02-21T01:52:49;10.20;88.10
42755;DHT22;28407;51.830;5.684;2024-02-21T01:54:50;10.30;88.20
42755;DHT22;28407;51.830;5.684;2024-02-21T01:56:51;10.30;88.20
42755;DHT22;28407;51.830;5.684;2024-02-21T01:58:53;10.30;88.20
42755;DHT22;28407;51.830;5.684;2024-02-21T02:00:56;10.30;88.20
42755;DHT22;28407;51.830;5.684;2024-02-21T02:02:57;10.30;88.20
42755;DHT22;28407;51.830;5.684;2024-02-21T02:04:58;10.30;88.20
42755;DHT22;28407;51.830;5.684;2024-02-21T02:07:00;10.30;88.20
42755;DHT22;28407;51.830;5.684;2024-02-21T02:09:03;10.30;88.20
42755;DHT22;28407;51.830;5.684;2024-02-21T02:11:04;10.30;88.20
42755;DHT22;28407;51.830;5.684;2024-02-21T02:13:04;10.30;88.20
42755;DHT22;28407;51.830;5.684;2024-02-21T02:15:06;10.30;88.20
42755;DHT22;28407;51.830;5.684;2024-02-21T02:17:06;10.30;88.20
42755;DHT22;28407;51.830;5.684;2024-02-21T02:19:07;10.30;88.20
42755;DHT22;28407;51.830;5.684;2024-02-21T02:21:39;10.30;88.20
42755;DHT22;28407;51.830;5.684;2024-02-21T02:23:37;10.30;88.20
42755;DHT22;28407;51.830;5.684;2024-02-21T02:25:39;10.30;88.20
42755;DHT22;28407;51.830;5.684;2024-02-21T02:27:43;10.30;88.20
42755;DHT22;28407;51.830;5.684;2024-02-21T02:29:44;10.30;88.20
42755;DHT22;28407;51.830;5.684;2024-02-21T02:31:45;10.30;88.20
42755;DHT22;28407;51.830;5.684;2024-02-21T02:33:46;10.30;88.20
42755;DHT22;28407;51.830;5.684;2024-02-21T02:35:46;10.30;88.20
42755;DHT22;28407;51.830;5.684;2024-02-21T02:37:48;10.30;88.30
42755;DHT22;28407;51.830;5.684;2024-02-21T02:39:50;10.30;88.20
42755;DHT22;28407;51.830;5.684;2024-02-21T02:41:50;10.30;88.20
42755;DHT22;28407;51.830;5.684;2024-02-21T02:43:51;10.30;88.20
42755;DHT22;28407;51.830;5.684;2024-02-21T02:45:52;10.30;88.20
42755;DHT22;28407;51.830;5.684;2024-02-21T02:47:53;10.30;88.80
42755;DHT22;28407;51.830;5.684;2024-02-21T02:50:00;10.30;88.20
42755;DHT22;28407;51.830;5.684;2024-02-21T02:52:01;10.30;88.20
42755;DHT22;28407;51.830;5.684;2024-02-21T02:54:02;10.30;88.20
42755;DHT22;28407;51.830;5.684;2024-02-21T02:56:03;10.30;88.30
42755;DHT22;28407;51.830;5.684;2024-02-21T02:58:04;10.30;88.20
42755;DHT22;28407;51.830;5.684;2024-02-21T03:00:05;10.30;88.20
42755;DHT22;28407;51.830;5.684;2024-02-21T03:02:07;10.30;88.20
42755;DHT22;28407;51.830;5.684;2024-02-21T03:04:08;10.30;88.20
42755;DHT22;28407;51.830;5.684;2024-02-21T03:06:08;10.30;88.20
42755;DHT22;28407;51.830;5.684;2024-02-21T03:08:09;10.30;88.20
42755;DHT22;28407;51.830;5.684;2024-02-21T03:10:10;10.30;88.20
42755;DHT22;28407;51.830;5.684;2024-02-21T03:12:11;10.30;88.20
42755;DHT22;28407;51.830;5.684;2024-02-21T03:14:12;10.30;88.20
42755;DHT22;28407;51.830;5.684;2024-02-21T03:16:13;10.30;88.10
42755;DHT22;28407;51.830;5.684;2024-02-21T03:18:17;10.30;88.20
42755;DHT22;28407;51.830;5.684;2024-02-21T03:20:18;10.30;88.10
42755;DHT22;28407;51.830;5.684;2024-02-21T03:22:20;10.30;88.10
42755;DHT22;28407;51.830;5.684;2024-02-21T03:24:21;10.30;88.00
42755;DHT22;28407;51.830;5.684;2024-02-21T03:26:22;10.30;88.00
42755;DHT22;28407;51.830;5.684;2024-02-21T03:28:23;10.30;88.10
42755;DHT22;28407;51.830;5.684;2024-02-21T03:30:23;10.30;88.10
42755;DHT22;28407;51.830;5.684;2024-02-21T03:32:24;10.30;88.10
42755;DHT22;28407;51.830;5.684;2024-02-21T03:34:25;10.30;88.10
42755;DHT22;28407;51.830;5.684;2024-02-21T03:36:25;10.30;88.00
42755;DHT22;28407;51.830;5.684;2024-02-21T03:38:26;10.30;88.00
42755;DHT22;28407;51.830;5.684;2024-02-21T03:40:27;10.30;88.00
42755;DHT22;28407;51.830;5.684;2024-02-21T03:42:27;10.30;88.00
42755;DHT22;28407;51.830;5.684;2024-02-21T03:44:33;10.30;88.10
42755;DHT22;28407;51.830;5.684;2024-02-21T03:46:34;10.30;88.70
42755;DHT22;28407;51.830;5.684;2024-02-21T03:48:35;10.30;88.10
42755;DHT22;28407;51.830;5.684;2024-02-21T03:50:36;10.30;88.00
42755;DHT22;28407;51.830;5.684;2024-02-21T03:52:37;10.30;88.00
42755;DHT22;28407;51.830;5.684;2024-02-21T03:54:37;10.30;88.10
42755;DHT22;28407;51.830;5.684;2024-02-21T03:56:38;10.30;88.00
42755;DHT22;28407;51.830;5.684;2024-02-21T03:58:42;10.30;88.00
42755;DHT22;28407;51.830;5.684;2024-02-21T04:00:43;10.30;88.00
42755;DHT22;28407;51.830;5.684;2024-02-21T04:02:44;10.30;88.00
42755;DHT22;28407;51.830;5.684;2024-02-21T04:04:44;10.30;88.60
42755;DHT22;28407;51.830;5.684;2024-02-21T04:06:49;10.30;88.00
42755;DHT22;28407;51.830;5.684;2024-02-21T04:08:50;10.30;88.00
42755;DHT22;28407;51.830;5.684;2024-02-21T04:10:51;10.20;88.00
42755;DHT22;28407;51.830;5.684;2024-02-21T04:12:51;10.30;88.00
42755;DHT22;28407;51.830;5.684;2024-02-21T04:14:52;10.30;88.00
42755;DHT22;28407;51.830;5.684;2024-02-21T04:16:53;10.30;88.00
42755;DHT22;28407;51.830;5.684;2024-02-21T04:18:53;10.30;88.00
42755;DHT22;28407;51.830;5.684;2024-02-21T04:20:54;10.30;88.00
42755;DHT22;28407;51.830;5.684;2024-02-21T04:22:55;10.30;88.00
42755;DHT22;28407;51.830;5.684;2024-02-21T04:24:55;10.30;88.00
42755;DHT22;28407;51.830;5.684;2024-02-21T04:26:56;10.30;88.00
42755;DHT22;28407;51.830;5.684;2024-02-21T04:28:57;10.30;87.90
42755;DHT22;28407;51.830;5.684;2024-02-21T04:30:57;10.30;87.90
42755;DHT22;28407;51.830;5.684;2024-02-21T04:32:58;10.30;87.90
42755;DHT22;28407;51.830;5.684;2024-02-21T04:34:59;10.30;87.90
42755;DHT22;28407;51.830;5.684;2024-02-21T04:36:59;10.30;88.00
42755;DHT22;28407;51.830;5.684;2024-02-21T04:39:00;10.30;87.90
42755;DHT22;28407;51.830;5.684;2024-02-21T04:41:01;10.30;87.90
42755;DHT22;28407;51.830;5.684;2024-02-21T04:43:01;10.30;87.90
42755;DHT22;28407;51.830;5.684;2024-02-21T04:45:02;10.30;87.90
42755;DHT22;28407;51.830;5.684;2024-02-21T04:47:03;10.30;87.90
42755;DHT22;28407;51.830;5.684;2024-02-21T04:49:04;10.30;87.90
42755;DHT22;28407;51.830;5.684;2024-02-21T04:51:05;10.30;87.90
42755;DHT22;28407;51.830;5.684;2024-02-21T04:53:05;10.20;87.80
42755;DHT22;28407;51.830;5.684;2024-02-21T04:55:06;10.30;87.90
42755;DHT22;28407;51.830;5.684;2024-02-21T04:57:07;10.30;87.90
42755;DHT22;28407;51.830;5.684;2024-02-21T04:59:10;10.30;87.90
42755;DHT22;28407;51.830;5.684;2024-02-21T05:01:11;10.30;87.80
42755;DHT22;28407;51.830;5.684;2024-02-21T05:03:12;10.30;87.80
42755;DHT22;28407;51.830;5.684;2024-02-21T05:05:12;10.20;87.80
42755;DHT22;28407;51.830;5.684;2024-02-21T05:07:15;10.20;87.80
42755;DHT22;28407;51.830;5.684;2024-02-21T05:09:16;10.30;87.80
42755;DHT22;28407;51.830;5.684;2024-02-21T05:11:17;10.20;87.80
42755;DHT22;28407;51.830;5.684;2024-02-21T05:13:17;10.20;87.80
42755;DHT22;28407;51.830;5.684;2024-02-21T05:15:18;10.20;87.80
42755;DHT22;28407;51.830;5.684;2024-02-21T05:17:19;10.20;87.90
42755;DHT22;28407;51.830;5.684;2024-02-21T05:19:19;10.20;87.90
42755;DHT22;28407;51.830;5.684;2024-02-21T05:21:20;10.20;87.80
42755;DHT22;28407;51.830;5.684;2024-02-21T05:23:21;10.20;88.40
42755;DHT22;28407;51.830;5.684;2024-02-21T05:25:21;10.20;87.80
42755;DHT22;28407;51.830;5.684;2024-02-21T05:27:22;10.20;87.80
42755;DHT22;28407;51.830;5.684;2024-02-21T05:29:23;10.20;87.80
42755;DHT22;28407;51.830;5.684;2024-02-21T05:31:23;10.20;87.80
42755;DHT22;28407;51.830;5.684;2024-02-21T05:33:24;10.20;87.80
42755;DHT22;28407;51.830;5.684;2024-02-21T05:35:27;10.10;88.50
42755;DHT22;28407;51.830;5.684;2024-02-21T05:37:28;10.20;87.90
42755;DHT22;28407;51.830;5.684;2024-02-21T05:39:28;10.20;87.90
42755;DHT22;28407;51.830;5.684;2024-02-21T05:41:29;10.20;87.80
42755;DHT22;28407;51.830;5.684;2024-02-21T05:43:30;10.20;87.80
42755;DHT22;28407;51.830;5.684;2024-02-21T05:45:31;10.10;87.80
42755;DHT22;28407;51.830;5.684;2024-02-21T05:47:31;10.20;87.90
42755;DHT22;28407;51.830;5.684;2024-02-21T05:49:32;10.20;87.80
42755;DHT22;28407;51.830;5.684;2024-02-21T05:51:34;10.20;87.80
42755;DHT22;28407;51.830;5.684;2024-02-21T05:53:34;10.20;87.80
42755;DHT22;28407;51.830;5.684;2024-02-21T05:55:36;10.20;87.80
42755;DHT22;28407;51.830;5.684;2024-02-21T05:57:37;10.20;87.90
42755;DHT22;28407;51.830;5.684;2024-02-21T05:59:38;10.10;87.80
42755;DHT22;28407;51.830;5.684;2024-02-21T06:01:40;10.20;87.80
42755;DHT22;28407;51.830;5.684;2024-02-21T06:03:41;10.20;87.80
42755;DHT22;28407;51.830;5.684;2024-02-21T06:05:42;10.20;87.80
42755;DHT22;28407;51.830;5.684;2024-02-21T06:07:42;10.20;87.80
42755;DHT22;28407;51.830;5.684;2024-02-21T06:09:43;10.20;87.80
42755;DHT22;28407;51.830;5.684;2024-02-21T06:11:44;10.20;87.80
42755;DHT22;28407;51.830;5.684;2024-02-21T06:13:46;10.20;87.80
42755;DHT22;28407;51.830;5.684;2024-02-21T06:15:47;10.20;87.80
42755;DHT22;28407;51.830;5.684;2024-02-21T06:17:48;10.20;87.80
42755;DHT22;28407;51.830;5.684;2024-02-21T06:19:48;10.20;87.80
42755;DHT22;28407;51.830;5.684;2024-02-21T06:21:49;10.20;87.80
42755;DHT22;28407;51.830;5.684;2024-02-21T06:23:50;10.20;87.80
42755;DHT22;28407;51.830;5.684;2024-02-21T06:25:50;10.20;87.70
42755;DHT22;28407;51.830;5.684;2024-02-21T06:27:51;10.20;88.40
42755;DHT22;28407;51.830;5.684;2024-02-21T06:29:52;10.10;87.70
42755;DHT22;28407;51.830;5.684;2024-02-21T06:31:52;10.10;87.70
42755;DHT22;28407;51.830;5.684;2024-02-21T06:33:53;10.10;87.80
42755;DHT22;28407;51.830;5.684;2024-02-21T06:35:54;10.10;87.80
42755;DHT22;28407;51.830;5.684;2024-02-21T06:37:54;10.10;87.80
42755;DHT22;28407;51.830;5.684;2024-02-21T06:39:55;10.10;87.80
42755;DHT22;28407;51.830;5.684;2024-02-21T06:41:56;10.20;87.80
42755;DHT22;28407;51.830;5.684;2024-02-21T06:43:56;10.10;87.80
42755;DHT22;28407;51.830;5.684;2024-02-21T06:45:57;10.10;87.80
42755;DHT22;28407;51.830;5.684;2024-02-21T06:47:58;10.10;87.80
42755;DHT22;28407;51.830;5.684;2024-02-21T06:49:59;10.10;87.70
42755;DHT22;28407;51.830;5.684;2024-02-21T06:51:59;10.10;87.80
42755;DHT22;28407;51.830;5.684;2024-02-21T06:54:00;10.10;87.70
42755;DHT22;28407;51.830;5.684;2024-02-21T06:56:01;10.10;88.00
42755;DHT22;28407;51.830;5.684;2024-02-21T06:58:02;10.10;87.70
42755;DHT22;28407;51.830;5.684;2024-02-21T07:00:03;10.10;87.80
42755;DHT22;28407;51.830;5.684;2024-02-21T07:02:04;10.10;87.80
42755;DHT22;28407;51.830;5.684;2024-02-21T07:04:04;10.10;87.70
42755;DHT22;28407;51.830;5.684;2024-02-21T07:06:06;10.10;87.70
42755;DHT22;28407;51.830;5.684;2024-02-21T07:08:06;10.10;87.80
42755;DHT22;28407;51.830;5.684;2024-02-21T07:10:07;10.10;87.80
42755;DHT22;28407;51.830;5.684;2024-02-21T07:12:08;10.10;87.80
42755;DHT22;28407;51.830;5.684;2024-02-21T07:14:09;10.10;87.70
42755;DHT22;28407;51.830;5.684;2024-02-21T07:16:09;10.10;87.80
42755;DHT22;28407;51.830;5.684;2024-02-21T07:18:10;10.10;87.70
42755;DHT22;28407;51.830;5.684;2024-02-21T07:20:11;10.10;87.70
42755;DHT22;28407;51.830;5.684;2024-02-21T07:22:11;10.10;87.70
42755;DHT22;28407;51.830;5.684;2024-02-21T07:24:12;10.10;87.70
42755;DHT22;28407;51.830;5.684;2024-02-21T07:26:13;10.10;87.70
42755;DHT22;28407;51.830;5.684;2024-02-21T07:28:13;10.10;87.60
42755;DHT22;28407;51.830;5.684;2024-02-21T07:30:16;10.10;87.60
42755;DHT22;28407;51.830;5.684;2024-02-21T07:32:16;10.10;87.60
42755;DHT22;28407;51.830;5.684;2024-02-21T07:34:17;10.10;87.60
42755;DHT22;28407;51.830;5.684;2024-02-21T07:36:29;10.10;88.20
42755;DHT22;28407;51.830;5.684;2024-02-21T07:38:30;10.10;87.60
42755;DHT22;28407;51.830;5.684;2024-02-21T07:40:31;10.10;87.60
42755;DHT22;28407;51.830;5.684;2024-02-21T07:42:31;10.10;87.60
42755;DHT22;28407;51.830;5.684;2024-02-21T07:44:32;10.10;87.60
42755;DHT22;28407;51.830;5.684;2024-02-21T07:46:33;10.10;87.60
42755;DHT22;28407;51.830;5.684;2024-02-21T07:48:33;10.10;87.60
42755;DHT22;28407;51.830;5.684;2024-02-21T07:50:34;10.10;87.60
42755;DHT22;28407;51.830;5.684;2024-02-21T07:52:35;10.10;87.50
42755;DHT22;28407;51.830;5.684;2024-02-21T07:54:35;10.10;87.60
42755;DHT22;28407;51.830;5.684;2024-02-21T07:56:36;10.10;88.20
42755;DHT22;28407;51.830;5.684;2024-02-21T07:58:36;10.10;87.50
42755;DHT22;28407;51.830;5.684;2024-02-21T08:00:37;10.10;87.50
42755;DHT22;28407;51.830;5.684;2024-02-21T08:02:38;10.10;87.60
42755;DHT22;28407;51.830;5.684;2024-02-21T08:04:38;10.10;87.50
42755;DHT22;28407;51.830;5.684;2024-02-21T08:06:39;10.10;87.50
42755;DHT22;28407;51.830;5.684;2024-02-21T08:08:40;10.10;87.50
42755;DHT22;28407;51.830;5.684;2024-02-21T08:10:41;10.10;87.50
42755;DHT22;28407;51.830;5.684;2024-02-21T08:12:41;10.10;87.50
42755;DHT22;28407;51.830;5.684;2024-02-21T08:14:42;10.10;87.40
42755;DHT22;28407;51.830;5.684;2024-02-21T08:16:44;10.10;87.40
42755;DHT22;28407;51.830;5.684;2024-02-21T08:18:45;10.20;87.50
42755;DHT22;28407;51.830;5.684;2024-02-21T08:20:45;10.10;87.30
42755;DHT22;28407;51.830;5.684;2024-02-21T08:22:46;10.20;87.30
42755;DHT22;28407;51.830;5.684;2024-02-21T08:24:47;10.20;87.30
42755;DHT22;28407;51.830;5.684;2024-02-21T08:26:47;10.20;87.90
42755;DHT22;28407;51.830;5.684;2024-02-21T08:28:48;10.20;87.80
42755;DHT22;28407;51.830;5.684;2024-02-21T08:30:49;10.20;87.30
42755;DHT22;28407;51.830;5.684;2024-02-21T08:32:50;10.20;87.30
42755;DHT22;28407;51.830;5.684;2024-02-21T08:34:50;10.20;87.20
42755;DHT22;28407;51.830;5.684;2024-02-21T08:36:51;10.20;87.80
42755;DHT22;28407;51.830;5.684;2024-02-21T08:38:52;10.20;87.20
42755;DHT22;28407;51.830;5.684;2024-02-21T08:40:53;10.20;87.30
42755;DHT22;28407;51.830;5.684;2024-02-21T08:42:54;10.20;87.30
42755;DHT22;28407;51.830;5.684;2024-02-21T08:44:54;10.20;87.30
42755;DHT22;28407;51.830;5.684;2024-02-21T08:46:55;10.30;87.30
42755;DHT22;28407;51.830;5.684;2024-02-21T08:48:56;10.30;87.20
42755;DHT22;28407;51.830;5.684;2024-02-21T08:50:57;10.20;87.10
42755;DHT22;28407;51.830;5.684;2024-02-21T08:52:57;10.30;87.10
42755;DHT22;28407;51.830;5.684;2024-02-21T08:54:58;10.30;87.10
42755;DHT22;28407;51.830;5.684;2024-02-21T08:56:59;10.30;87.10
42755;DHT22;28407;51.830;5.684;2024-02-21T08:58:59;10.30;87.10
42755;DHT22;28407;51.830;5.684;2024-02-21T09:01:00;10.30;87.70
42755;DHT22;28407;51.830;5.684;2024-02-21T09:03:01;10.30;87.00
42755;DHT22;28407;51.830;5.684;2024-02-21T09:05:02;10.30;87.00
42755;DHT22;28407;51.830;5.684;2024-02-21T09:07:03;10.30;87.00
42755;DHT22;28407;51.830;5.684;2024-02-21T09:09:04;10.30;87.00
42755;DHT22;28407;51.830;5.684;2024-02-21T09:11:06;10.30;86.90
42755;DHT22;28407;51.830;5.684;2024-02-21T09:13:07;10.40;87.00
42755;DHT22;28407;51.830;5.684;2024-02-21T09:15:11;10.40;86.90
42755;DHT22;28407;51.830;5.684;2024-02-21T09:17:11;10.40;86.90
42755;DHT22;28407;51.830;5.684;2024-02-21T09:19:13;10.40;86.80
42755;DHT22;28407;51.830;5.684;2024-02-21T09:21:13;10.40;86.80
42755;DHT22;28407;51.830;5.684;2024-02-21T09:23:14;10.40;86.80
42755;DHT22;28407;51.830;5.684;2024-02-21T09:25:15;10.40;87.40
42755;DHT22;28407;51.830;5.684;2024-02-21T09:27:16;10.50;86.80
42755;DHT22;28407;51.830;5.684;2024-02-21T09:29:16;10.50;86.80
42755;DHT22;28407;51.830;5.684;2024-02-21T09:31:17;10.50;86.70
42755;DHT22;28407;51.830;5.684;2024-02-21T09:33:18;10.50;86.70
42755;DHT22;28407;51.830;5.684;2024-02-21T09:35:18;10.50;86.60
42755;DHT22;28407;51.830;5.684;2024-02-21T09:37:19;10.50;86.60
42755;DHT22;28407;51.830;5.684;2024-02-21T09:39:20;10.50;86.60
42755;DHT22;28407;51.830;5.684;2024-02-21T09:41:27;10.60;86.40
42755;DHT22;28407;51.830;5.684;2024-02-21T09:43:29;10.60;86.40
42755;DHT22;28407;51.830;5.684;2024-02-21T09:45:30;10.60;86.40
42755;DHT22;28407;51.830;5.684;2024-02-21T09:47:39;10.60;86.40
42755;DHT22;28407;51.830;5.684;2024-02-21T09:49:40;10.60;86.30
42755;DHT22;28407;51.830;5.684;2024-02-21T09:51:43;10.60;86.30
42755;DHT22;28407;51.830;5.684;2024-02-21T09:53:45;10.60;86.40
42755;DHT22;28407;51.830;5.684;2024-02-21T09:55:48;10.60;86.30
42755;DHT22;28407;51.830;5.684;2024-02-21T09:57:50;10.60;86.30
42755;DHT22;28407;51.830;5.684;2024-02-21T09:59:52;10.60;86.30
42755;DHT22;28407;51.830;5.684;2024-02-21T10:01:53;10.60;86.30
42755;DHT22;28407;51.830;5.684;2024-02-21T10:03:54;10.60;86.30
42755;DHT22;28407;51.830;5.684;2024-02-21T10:05:55;10.60;86.40
42755;DHT22;28407;51.830;5.684;2024-02-21T10:07:56;10.60;86.40
42755;DHT22;28407;51.830;5.684;2024-02-21T10:10:04;10.60;86.50
42755;DHT22;28407;51.830;5.684;2024-02-21T10:12:09;10.60;86.60
42755;DHT22;28407;51.830;5.684;2024-02-21T10:14:10;10.60;86.60
42755;DHT22;28407;51.830;5.684;2024-02-21T10:16:11;10.50;86.70
42755;DHT22;28407;51.830;5.684;2024-02-21T10:18:11;10.50;86.70
42755;DHT22;28407;51.830;5.684;2024-02-21T10:20:12;10.50;86.90
42755;DHT22;28407;51.830;5.684;2024-02-21T10:22:15;10.50;87.00
42755;DHT22;28407;51.830;5.684;2024-02-21T10:24:26;10.40;87.10
42755;DHT22;28407;51.830;5.684;2024-02-21T10:26:27;10.50;87.30
42755;DHT22;28407;51.830;5.684;2024-02-21T10:28:28;10.50;87.30
42755;DHT22;28407;51.830;5.684;2024-02-21T10:30:28;10.40;87.30
42755;DHT22;28407;51.830;5.684;2024-02-21T10:32:29;10.40;87.40
42755;DHT22;28407;51.830;5.684;2024-02-21T10:34:31;10.40;87.40
42755;DHT22;28407;51.830;5.684;2024-02-21T10:36:31;10.40;87.50
42755;DHT22;28407;51.830;5.684;2024-02-21T10:38:32;10.50;87.60
42755;DHT22;28407;51.830;5.684;2024-02-21T10:40:34;10.40;87.60
42755;DHT22;28407;51.830;5.684;2024-02-21T10:42:37;10.50;87.60
42755;DHT22;28407;51.830;5.684;2024-02-21T10:44:40;10.50;87.60
42755;DHT22;28407;51.830;5.684;2024-02-21T10:46:42;10.50;87.60
42755;DHT22;28407;51.830;5.684;2024-02-21T10:48:44;10.50;87.60
42755;DHT22;28407;51.830;5.684;2024-02-21T10:51:02;10.50;87.60
42755;DHT22;28407;51.830;5.684;2024-02-21T10:53:15;10.50;87.60
42755;DHT22;28407;51.830;5.684;2024-02-21T10:55:33;10.50;87.60
42755;DHT22;28407;51.830;5.684;2024-02-21T10:57:39;10.50;87.50
42755;DHT22;28407;51.830;5.684;2024-02-21T10:59:40;10.50;87.50
42755;DHT22;28407;51.830;5.684;2024-02-21T11:01:41;10.60;87.50
42755;DHT22;28407;51.830;5.684;2024-02-21T11:03:44;10.60;87.50
42755;DHT22;28407;51.830;5.684;2024-02-21T11:05:46;10.60;87.50
42755;DHT22;28407;51.830;5.684;2024-02-21T11:07:47;10.60;87.40
42755;DHT22;28407;51.830;5.684;2024-02-21T11:09:54;10.60;87.40
42755;DHT22;28407;51.830;5.684;2024-02-21T11:11:57;10.60;87.40
42755;DHT22;28407;51.830;5.684;2024-02-21T11:14:08;10.70;87.40
42755;DHT22;28407;51.830;5.684;2024-02-21T11:16:11;10.70;87.30
42755;DHT22;28407;51.830;5.684;2024-02-21T11:18:12;10.70;87.30
42755;DHT22;28407;51.830;5.684;2024-02-21T11:20:32;10.70;87.20
42755;DHT22;28407;51.830;5.684;2024-02-21T11:22:44;10.70;87.20
42755;DHT22;28407;51.830;5.684;2024-02-21T11:24:45;10.70;87.10
42755;DHT22;28407;51.830;5.684;2024-02-21T11:26:49;10.70;87.10
42755;DHT22;28407;51.830;5.684;2024-02-21T11:29:02;10.70;87.10
42755;DHT22;28407;51.830;5.684;2024-02-21T11:31:14;10.70;87.10
42755;DHT22;28407;51.830;5.684;2024-02-21T11:33:16;10.70;87.00
42755;DHT22;28407;51.830;5.684;2024-02-21T11:35:20;10.70;87.00
42755;DHT22;28407;51.830;5.684;2024-02-21T11:37:21;10.70;86.90
42755;DHT22;28407;51.830;5.684;2024-02-21T11:39:25;10.80;86.90
42755;DHT22;28407;51.830;5.684;2024-02-21T11:41:26;10.80;86.90
42755;DHT22;28407;51.830;5.684;2024-02-21T11:43:27;10.70;86.80
42755;DHT22;28407;51.830;5.684;2024-02-21T11:45:28;10.80;86.80
42755;DHT22;28407;51.830;5.684;2024-02-21T11:47:29;10.80;86.70
42755;DHT22;28407;51.830;5.684;2024-02-21T11:49:30;10.80;86.50
42755;DHT22;28407;51.830;5.684;2024-02-21T11:51:31;10.80;86.60
42755;DHT22;28407;51.830;5.684;2024-02-21T11:53:32;10.80;86.50
42755;DHT22;28407;51.830;5.684;2024-02-21T11:55:33;10.90;86.50
42755;DHT22;28407;51.830;5.684;2024-02-21T11:57:34;10.80;86.30
42755;DHT22;28407;51.830;5.684;2024-02-21T11:59:41;10.90;86.40
42755;DHT22;28407;51.830;5.684;2024-02-21T12:01:42;10.90;86.30
42755;DHT22;28407;51.830;5.684;2024-02-21T12:03:43;10.90;86.20
42755;DHT22;28407;51.830;5.684;2024-02-21T12:05:49;10.90;86.10
42755;DHT22;28407;51.830;5.684;2024-02-21T12:07:51;11.00;86.00
42755;DHT22;28407;51.830;5.684;2024-02-21T12:09:52;11.00;86.00
42755;DHT22;28407;51.830;5.684;2024-02-21T12:12:04;11.00;85.90
42755;DHT22;28407;51.830;5.684;2024-02-21T12:14:07;11.00;85.80
42755;DHT22;28407;51.830;5.684;2024-02-21T12:16:09;11.00;85.80
42755;DHT22;28407;51.830;5.684;2024-02-21T12:18:10;11.10;85.80
42755;DHT22;28407;51.830;5.684;2024-02-21T12:20:11;11.10;85.60
42755;DHT22;28407;51.830;5.684;2024-02-21T12:22:18;11.10;85.50
42755;DHT22;28407;51.830;5.684;2024-02-21T12:24:25;11.10;85.40
42755;DHT22;28407;51.830;5.684;2024-02-21T12:26:26;11.20;85.40
42755;DHT22;28407;51.830;5.684;2024-02-21T12:28:27;11.20;85.30
42755;DHT22;28407;51.830;5.684;2024-02-21T12:30:29;11.20;85.20
42755;DHT22;28407;51.830;5.684;2024-02-21T12:32:31;11.20;85.20
42755;DHT22;28407;51.830;5.684;2024-02-21T12:34:32;11.30;85.10
42755;DHT22;28407;51.830;5.684;2024-02-21T12:36:33;11.30;85.10
42755;DHT22;28407;51.830;5.684;2024-02-21T12:38:34;11.30;85.00
42755;DHT22;28407;51.830;5.684;2024-02-21T12:40:35;11.30;84.90
42755;DHT22;28407;51.830;5.684;2024-02-21T12:42:36;11.30;84.90
42755;DHT22;28407;51.830;5.684;2024-02-21T12:44:37;11.30;84.90
42755;DHT22;28407;51.830;5.684;2024-02-21T12:46:38;11.30;84.80
42755;DHT22;28407;51.830;5.684;2024-02-21T12:48:38;11.40;85.50